createdAt,value
2018-09-27T00:02:04.370Z,4.07
2018-09-27T00:04:33.146Z,3.90
2018-09-27T00:07:02.050Z,4.10
2018-09-27T00:09:30.955Z,3.40
2018-09-27T00:11:59.782Z,3.73
2018-09-27T00:14:28.579Z,3.40
2018-09-27T00:16:57.394Z,3.57
2018-09-27T00:19:26.282Z,3.30
2018-09-27T00:21:55.079Z,3.27
2018-09-27T00:24:23.903Z,4.80
2018-09-27T00:26:52.862Z,3.33
2018-09-27T00:29:21.667Z,3.87
2018-09-27T00:31:50.460Z,3.53
2018-09-27T00:34:19.570Z,3.20
2018-09-27T00:36:48.399Z,3.60
2018-09-27T00:39:17.303Z,3.57
2018-09-27T00:41:46.165Z,3.20
2018-09-27T00:44:14.966Z,3.37
2018-09-27T00:46:43.787Z,3.70
2018-09-27T00:49:12.575Z,3.63
2018-09-27T00:51:41.390Z,4.17
2018-09-27T00:54:10.155Z,3.83
2018-09-27T00:56:39.075Z,4.00
2018-09-27T00:59:11.642Z,3.50
2018-09-27T01:01:41.391Z,3.53
2018-09-27T01:04:10.207Z,3.90
2018-09-27T01:06:39.014Z,3.50
2018-09-27T01:09:09.567Z,3.50
2018-09-27T01:11:38.763Z,3.00
2018-09-27T01:14:07.599Z,3.33
2018-09-27T01:16:36.414Z,4.00
2018-09-27T01:19:05.402Z,4.07
2018-09-27T01:21:34.234Z,3.80
2018-09-27T01:24:03.047Z,3.90
2018-09-27T01:26:31.856Z,3.90
2018-09-27T01:29:00.808Z,3.60
2018-09-27T01:31:29.587Z,3.70
2018-09-27T01:33:58.387Z,4.30
2018-09-27T01:36:27.179Z,3.90
2018-09-27T01:38:56.017Z,5.37
2018-09-27T01:41:24.946Z,4.33
2018-09-27T01:43:53.739Z,3.50
2018-09-27T01:46:22.553Z,3.60
2018-09-27T01:48:51.483Z,3.17
2018-09-27T01:51:23.306Z,3.63
2018-09-27T01:53:52.223Z,4.23
2018-09-27T01:56:21.064Z,3.90
2018-09-27T01:58:49.907Z,3.00
2018-09-27T02:01:18.827Z,3.40
2018-09-27T02:03:47.642Z,3.80
2018-09-27T02:06:16.474Z,2.93
2018-09-27T02:08:45.355Z,3.73
2018-09-27T02:11:20.975Z,3.50
2018-09-27T02:13:49.794Z,3.37
2018-09-27T02:16:18.583Z,4.00
2018-09-27T02:18:47.503Z,4.20
2018-09-27T02:21:16.296Z,3.17
2018-09-27T02:23:45.231Z,3.70
2018-09-27T02:26:14.042Z,4.17
2018-09-27T02:28:42.930Z,4.00
2018-09-27T02:31:11.741Z,3.83
2018-09-27T02:33:40.567Z,3.50
2018-09-27T02:36:09.397Z,4.10
2018-09-27T02:38:38.310Z,3.30
2018-09-27T02:41:07.274Z,3.17
2018-09-27T02:43:36.094Z,3.30
2018-09-27T02:46:04.869Z,3.50
2018-09-27T02:48:33.755Z,3.97
2018-09-27T02:51:02.554Z,3.57
2018-09-27T02:53:31.371Z,4.33
2018-09-27T02:56:00.172Z,4.40
2018-09-27T02:58:29.070Z,3.20
2018-09-27T03:00:57.879Z,3.67
2018-09-27T03:03:26.738Z,3.60
2018-09-27T03:05:55.558Z,3.20
2018-09-27T03:08:24.366Z,3.20
2018-09-27T03:10:53.519Z,3.70
2018-09-27T03:13:22.341Z,3.40
2018-09-27T03:15:51.500Z,3.20
2018-09-27T03:18:20.619Z,3.80
2018-09-27T03:20:49.561Z,3.20
2018-09-27T03:23:18.327Z,3.37
2018-09-27T03:25:47.150Z,3.73
2018-09-27T03:28:16.026Z,3.20
2018-09-27T03:30:44.918Z,3.60
2018-09-27T03:33:18.550Z,3.27
2018-09-27T03:38:21.983Z,3.90
2018-09-27T03:40:50.767Z,3.03
2018-09-27T03:43:19.626Z,3.53
2018-09-27T03:45:48.423Z,3.37
2018-09-27T03:48:17.244Z,4.03
2018-09-27T03:50:46.090Z,3.70
2018-09-27T03:53:14.887Z,4.20
2018-09-27T03:55:43.714Z,3.63
2018-09-27T03:58:12.524Z,3.60
2018-09-27T04:00:41.363Z,3.43
2018-09-27T04:03:10.215Z,3.50
2018-09-27T04:05:39.090Z,2.90
2018-09-27T04:08:07.972Z,3.37
2018-09-27T04:10:36.801Z,3.77
2018-09-27T04:13:05.624Z,3.73
2018-09-27T04:15:34.441Z,3.30
2018-09-27T04:18:03.366Z,3.80
2018-09-27T04:20:36.735Z,3.47
2018-09-27T04:23:05.650Z,3.90
2018-09-27T04:25:34.446Z,3.07
2018-09-27T04:28:03.287Z,3.27
2018-09-27T04:30:32.107Z,3.57
2018-09-27T04:33:00.939Z,3.83
2018-09-27T04:35:29.748Z,3.57
2018-09-27T04:37:58.658Z,4.17
2018-09-27T04:40:27.530Z,4.60
2018-09-27T04:42:56.343Z,3.77
2018-09-27T04:45:25.114Z,3.87
2018-09-27T04:47:54.019Z,3.50
2018-09-27T04:50:22.811Z,4.90
2018-09-27T04:52:51.614Z,4.77
2018-09-27T04:55:20.417Z,3.60
2018-09-27T04:57:49.526Z,4.10
2018-09-27T05:00:31.361Z,4.60
2018-09-27T05:03:00.187Z,4.50
2018-09-27T05:05:28.998Z,3.50
2018-09-27T05:07:57.821Z,3.80
2018-09-27T05:10:26.654Z,4.00
2018-09-27T05:12:55.461Z,3.40
2018-09-27T05:15:24.332Z,4.20
2018-09-27T05:17:53.185Z,4.33
2018-09-27T05:20:22.076Z,4.80
2018-09-27T05:22:50.917Z,4.30
2018-09-27T05:25:19.714Z,4.03
2018-09-27T05:27:48.570Z,4.40
2018-09-27T05:30:17.349Z,4.57
2018-09-27T05:32:46.149Z,5.47
2018-09-27T05:35:14.958Z,6.03
2018-09-27T05:37:43.847Z,6.43
2018-09-27T05:40:12.650Z,8.37
2018-09-27T05:42:41.450Z,8.20
2018-09-27T05:45:10.274Z,8.40
2018-09-27T05:47:39.156Z,7.90
2018-09-27T05:50:08.430Z,7.20
2018-09-27T05:52:38.634Z,7.70
2018-09-27T05:55:07.470Z,7.67
2018-09-27T05:57:36.400Z,7.57
2018-09-27T06:00:05.349Z,7.00
2018-09-27T06:02:34.155Z,5.97
2018-09-27T06:05:02.936Z,6.70
2018-09-27T06:07:31.759Z,6.67
2018-09-27T06:10:00.562Z,6.47
2018-09-27T06:12:29.354Z,5.77
2018-09-27T06:14:58.172Z,6.60
2018-09-27T06:17:27.547Z,6.40
2018-09-27T06:19:56.399Z,6.93
2018-09-27T06:22:25.142Z,4.80
2018-09-27T06:24:53.938Z,5.00
2018-09-27T06:27:22.765Z,5.73
2018-09-27T06:29:51.550Z,6.20
2018-09-27T06:32:20.354Z,4.60
2018-09-27T06:34:49.177Z,5.40
2018-09-27T06:37:18.035Z,4.80
2018-09-27T06:39:46.818Z,4.60
2018-09-27T06:42:15.626Z,5.57
2018-09-27T06:44:44.520Z,5.53
2018-09-27T06:47:13.266Z,5.70
2018-09-27T06:49:42.073Z,5.30
2018-09-27T06:52:10.906Z,6.43
2018-09-27T06:54:39.689Z,5.87
2018-09-27T06:57:08.542Z,7.20
2018-09-27T06:59:37.343Z,4.63
2018-09-27T07:02:06.556Z,5.83
2018-09-27T07:04:35.396Z,5.20
2018-09-27T07:07:04.310Z,4.67
2018-09-27T07:09:33.135Z,4.90
2018-09-27T07:12:01.989Z,4.50
2018-09-27T07:14:30.856Z,4.07
2018-09-27T07:16:59.786Z,6.93
2018-09-27T07:19:28.601Z,7.63
2018-09-27T07:21:57.403Z,6.37
2018-09-27T07:24:26.174Z,5.27
2018-09-27T07:26:55.119Z,5.70
2018-09-27T07:29:23.854Z,5.90
2018-09-27T07:31:52.674Z,6.63
2018-09-27T07:34:21.463Z,5.70
2018-09-27T07:36:50.374Z,6.33
2018-09-27T07:39:19.173Z,5.80
2018-09-27T07:41:47.965Z,5.80
2018-09-27T07:44:16.786Z,5.47
2018-09-27T07:46:45.602Z,6.00
2018-09-27T07:49:14.407Z,6.03
2018-09-27T07:51:43.206Z,6.50
2018-09-27T07:54:12.079Z,5.90
2018-09-27T07:56:40.877Z,7.07
2018-09-27T07:59:13.487Z,6.63
2018-09-27T08:01:42.761Z,7.60
2018-09-27T08:04:11.602Z,7.10
2018-09-27T08:06:40.411Z,6.87
2018-09-27T08:09:09.464Z,6.70
2018-09-27T08:11:38.790Z,5.80
2018-09-27T08:14:07.954Z,6.47
2018-09-27T08:16:36.801Z,6.37
2018-09-27T08:19:05.754Z,5.70
2018-09-27T08:21:34.586Z,8.07
2018-09-27T08:24:03.455Z,7.50
2018-09-27T08:26:32.297Z,6.70
2018-09-27T08:29:01.162Z,6.13
2018-09-27T08:31:29.983Z,6.00
2018-09-27T08:33:58.806Z,6.77
2018-09-27T08:36:27.582Z,6.40
2018-09-27T08:38:56.478Z,6.07
2018-09-27T08:41:25.370Z,6.40
2018-09-27T08:43:54.139Z,6.77
2018-09-27T08:46:23.062Z,7.60
2018-09-27T08:48:51.955Z,7.43
2018-09-27T08:51:20.794Z,6.00
2018-09-27T08:53:49.603Z,6.50
2018-09-27T08:56:18.495Z,6.20
2018-09-27T08:58:47.342Z,5.30
2018-09-27T09:01:16.147Z,5.50
2018-09-27T09:03:45.112Z,5.77
2018-09-27T09:06:13.806Z,7.33
2018-09-27T09:08:42.769Z,6.30
2018-09-27T09:11:11.578Z,6.70
2018-09-27T09:13:40.443Z,6.47
2018-09-27T09:16:09.257Z,6.87
2018-09-27T09:18:38.163Z,7.17
2018-09-27T09:21:07.511Z,6.00
2018-09-27T09:23:36.399Z,6.17
2018-09-27T09:26:17.235Z,5.33
2018-09-27T09:28:46.041Z,6.10
2018-09-27T09:31:14.841Z,6.30
2018-09-27T09:33:43.802Z,6.23
2018-09-27T09:36:12.466Z,6.53
2018-09-27T09:38:41.374Z,6.67
2018-09-27T09:41:10.175Z,7.10
2018-09-27T09:43:38.974Z,5.93
2018-09-27T09:46:07.804Z,7.00
2018-09-27T09:48:36.646Z,5.90
2018-09-27T09:51:05.502Z,6.40
2018-09-27T09:53:34.309Z,6.87
2018-09-27T09:56:03.638Z,5.93
2018-09-27T09:58:32.523Z,5.10
2018-09-27T10:01:01.339Z,6.80
2018-09-27T10:03:30.230Z,5.60
2018-09-27T10:05:59.049Z,5.70
2018-09-27T10:08:27.851Z,5.30
2018-09-27T10:10:56.658Z,5.77
2018-09-27T10:13:25.435Z,4.67
2018-09-27T10:15:54.277Z,4.90
2018-09-27T10:18:23.131Z,5.47
2018-09-27T10:20:51.935Z,4.50
2018-09-27T10:23:20.762Z,4.50
2018-09-27T10:25:49.574Z,4.93
2018-09-27T10:28:18.498Z,4.40
2018-09-27T10:30:47.293Z,4.40
2018-09-27T10:33:16.095Z,4.60
2018-09-27T10:35:44.919Z,4.73
2018-09-27T10:38:13.815Z,4.93
2018-09-27T10:40:42.650Z,4.07
2018-09-27T10:43:11.448Z,3.97
2018-09-27T10:45:40.255Z,4.17
2018-09-27T10:48:09.175Z,4.03
2018-09-27T10:50:37.990Z,4.10
2018-09-27T10:53:07.515Z,4.27
2018-09-27T10:55:36.322Z,4.30
2018-09-27T10:58:05.183Z,4.10
2018-09-27T11:00:34.667Z,3.60
2018-09-27T11:03:03.471Z,3.70
2018-09-27T11:05:32.310Z,4.00
2018-09-27T11:08:01.111Z,3.63
2018-09-27T11:10:29.899Z,4.23
2018-09-27T11:12:58.711Z,4.37
2018-09-27T11:15:27.527Z,3.70
2018-09-27T11:17:56.387Z,3.60
2018-09-27T11:20:25.245Z,3.80
2018-09-27T11:22:54.023Z,3.73
2018-09-27T11:25:22.817Z,3.73
2018-09-27T11:27:51.643Z,3.90
2018-09-27T11:30:25.995Z,3.83
2018-09-27T11:32:54.858Z,3.37
2018-09-27T11:35:23.635Z,3.17
2018-09-27T11:37:52.731Z,2.67
2018-09-27T11:40:21.536Z,3.40
2018-09-27T11:42:50.413Z,3.03
2018-09-27T11:45:19.179Z,3.17
2018-09-27T11:47:48.153Z,3.57
2018-09-27T11:50:17.008Z,2.83
2018-09-27T11:52:45.771Z,3.50
2018-09-27T11:55:15.247Z,4.10
2018-09-27T11:57:44.155Z,3.47
2018-09-27T12:00:17.142Z,3.33
2018-09-27T12:02:46.743Z,3.00
2018-09-27T12:05:15.591Z,3.20
2018-09-27T12:07:44.499Z,3.33
2018-09-27T12:10:13.307Z,2.80
2018-09-27T12:12:42.370Z,3.57
2018-09-27T12:15:11.270Z,3.00
2018-09-27T12:17:40.133Z,3.03
2018-09-27T12:20:08.970Z,2.80
2018-09-27T12:22:37.851Z,3.10
2018-09-27T12:25:06.654Z,3.10
2018-09-27T12:27:35.551Z,2.30
2018-09-27T12:30:05.028Z,2.60
2018-09-27T12:32:33.823Z,2.90
2018-09-27T12:35:02.749Z,2.60
2018-09-27T12:37:32.234Z,2.53
2018-09-27T12:40:01.037Z,2.60
2018-09-27T12:42:29.888Z,3.20
2018-09-27T12:44:58.697Z,3.07
2018-09-27T12:47:27.587Z,2.40
2018-09-27T12:49:56.387Z,2.97
2018-09-27T12:52:25.330Z,3.13
2018-09-27T12:54:54.055Z,2.60
2018-09-27T12:57:23.049Z,2.60
2018-09-27T12:59:51.954Z,3.40
2018-09-27T13:02:20.810Z,2.80
2018-09-27T13:04:49.591Z,2.30
2018-09-27T13:07:18.438Z,3.00
2018-09-27T13:09:47.443Z,3.00
2018-09-27T13:12:16.258Z,2.87
2018-09-27T13:14:45.045Z,2.70
2018-09-27T13:17:13.966Z,2.80
2018-09-27T13:19:42.719Z,2.50
2018-09-27T13:22:11.517Z,2.43
2018-09-27T13:24:40.369Z,3.30
2018-09-27T13:27:09.418Z,2.93
2018-09-27T13:29:38.194Z,3.23
2018-09-27T13:32:07.061Z,2.50
2018-09-27T13:34:35.828Z,2.63
2018-09-27T13:37:05.155Z,2.73
2018-09-27T13:39:33.914Z,3.17
2018-09-27T13:42:02.734Z,3.20
2018-09-27T13:44:31.547Z,2.20
2018-09-27T13:47:00.566Z,2.80
2018-09-27T13:49:29.419Z,2.57
2018-09-27T13:51:58.211Z,2.60
2018-09-27T13:54:27.052Z,2.37
2018-09-27T13:56:56.025Z,2.53
2018-09-27T13:59:28.283Z,2.13
2018-09-27T14:01:57.090Z,2.63
2018-09-27T14:04:25.947Z,2.33
2018-09-27T14:06:54.752Z,2.70
2018-09-27T14:09:23.590Z,2.93
2018-09-27T14:11:52.486Z,2.63
2018-09-27T14:14:21.311Z,3.10
2018-09-27T14:16:50.187Z,3.30
2018-09-27T14:19:18.998Z,2.80
2018-09-27T14:21:47.847Z,2.60
2018-09-27T14:24:16.674Z,2.20
2018-09-27T14:26:45.507Z,2.43
2018-09-27T14:29:14.365Z,2.60
2018-09-27T14:31:43.174Z,2.57
2018-09-27T14:34:12.843Z,2.70
2018-09-27T14:36:41.704Z,2.67
2018-09-27T14:39:10.907Z,2.13
2018-09-27T14:41:39.954Z,2.27
2018-09-27T14:44:08.706Z,3.00
2018-09-27T14:46:37.544Z,2.67
2018-09-27T14:49:06.456Z,2.20
2018-09-27T14:51:35.302Z,2.30
2018-09-27T14:54:04.133Z,2.37
2018-09-27T14:56:33.035Z,2.37
2018-09-27T14:59:01.891Z,2.93
2018-09-27T15:01:30.683Z,2.50
2018-09-27T15:03:59.815Z,2.20
2018-09-27T15:06:28.704Z,2.63
2018-09-27T15:08:57.655Z,2.63
2018-09-27T15:11:26.488Z,2.47
2018-09-27T15:13:55.323Z,2.30
2018-09-27T15:16:24.202Z,3.10
2018-09-27T15:18:53.004Z,2.57
2018-09-27T15:21:21.838Z,2.53
2018-09-27T15:23:50.639Z,3.40
2018-09-27T15:26:19.456Z,2.73
2018-09-27T15:28:48.384Z,3.30
2018-09-27T15:31:17.223Z,2.97
2018-09-27T15:33:46.144Z,3.93
2018-09-27T15:36:14.952Z,2.80
2018-09-27T15:38:43.855Z,2.70
2018-09-27T15:41:12.794Z,3.63
2018-09-27T15:43:41.622Z,4.83
2018-09-27T15:46:10.467Z,5.30
2018-09-27T15:48:39.965Z,3.53
2018-09-27T15:51:09.172Z,3.60
2018-09-27T15:53:38.103Z,3.50
2018-09-27T15:56:07.490Z,3.47
2018-09-27T15:58:36.481Z,3.47
2018-09-27T16:01:05.415Z,3.90
2018-09-27T16:03:34.228Z,3.30
2018-09-27T16:06:03.071Z,3.23
2018-09-27T16:08:31.973Z,3.17
2018-09-27T16:11:00.787Z,2.60
2018-09-27T16:13:29.604Z,3.40
2018-09-27T16:15:58.418Z,3.30
2018-09-27T16:18:27.310Z,2.80
2018-09-27T16:20:56.136Z,2.40
2018-09-27T16:23:24.958Z,2.70
2018-09-27T16:25:53.804Z,3.30
2018-09-27T16:28:22.683Z,2.73
2018-09-27T16:30:51.504Z,3.17
2018-09-27T16:33:20.404Z,3.70
2018-09-27T16:35:49.215Z,3.63
2018-09-27T16:38:18.116Z,2.80
2018-09-27T16:40:46.910Z,3.13
2018-09-27T16:43:15.715Z,3.13
2018-09-27T16:45:44.514Z,3.53
2018-09-27T16:48:13.414Z,3.57
2018-09-27T16:50:42.219Z,2.80
2018-09-27T16:53:10.987Z,3.30
2018-09-27T16:55:39.895Z,3.27
2018-09-27T16:58:08.772Z,2.80
2018-09-27T17:00:37.655Z,3.30
2018-09-27T17:03:06.516Z,3.67
2018-09-27T17:05:35.415Z,3.90
2018-09-27T17:08:04.323Z,4.87
2018-09-27T17:10:33.214Z,4.27
2018-09-27T17:13:02.140Z,4.43
2018-09-27T17:15:30.904Z,6.50
2018-09-27T17:17:59.763Z,6.70
2018-09-27T17:20:28.651Z,5.80
2018-09-27T17:22:57.443Z,6.40
2018-09-27T17:25:26.301Z,5.70
2018-09-27T17:27:55.172Z,5.93
2018-09-27T17:30:24.050Z,6.70
2018-09-27T17:32:53.467Z,8.03
2018-09-27T17:35:22.308Z,6.93
2018-09-27T17:37:51.539Z,5.93
2018-09-27T17:40:20.377Z,5.97
2018-09-27T17:42:49.191Z,6.70
2018-09-27T17:45:18.070Z,7.30
2018-09-27T17:47:46.955Z,7.60
2018-09-27T17:50:15.803Z,6.93
2018-09-27T17:52:44.664Z,6.93
2018-09-27T17:55:13.435Z,7.43
2018-09-27T17:57:42.347Z,8.27
2018-09-27T18:00:13.011Z,8.27
2018-09-27T18:02:42.063Z,7.57
2018-09-27T18:05:18.983Z,6.90
2018-09-27T18:07:39.894Z,9.00
2018-09-27T18:10:08.695Z,7.13
2018-09-27T18:12:37.495Z,6.67
2018-09-27T18:15:06.460Z,6.33
2018-09-27T18:17:35.317Z,7.37
2018-09-27T18:20:04.439Z,5.50
2018-09-27T18:22:33.670Z,6.30
2018-09-27T18:25:02.582Z,6.23
2018-09-27T18:27:31.582Z,5.43
2018-09-27T18:30:00.685Z,5.27
2018-09-27T18:32:29.516Z,5.27
2018-09-27T18:34:58.344Z,4.87
2018-09-27T18:37:27.551Z,4.60
2018-09-27T18:39:56.372Z,4.27
2018-09-27T18:42:25.200Z,4.83
2018-09-27T18:44:54.030Z,4.33
2018-09-27T18:47:23.034Z,4.70
2018-09-27T18:49:52.075Z,4.20
2018-09-27T18:52:20.879Z,4.03
2018-09-27T18:54:50.650Z,5.13
2018-09-27T18:57:19.620Z,5.40
2018-09-27T18:59:48.494Z,5.10
2018-09-27T19:02:17.322Z,5.30
2018-09-27T19:04:46.156Z,4.90
2018-09-27T19:07:16.920Z,5.70
2018-09-27T19:09:45.721Z,5.57
2018-09-27T19:12:14.555Z,6.40
2018-09-27T19:14:43.373Z,5.30
2018-09-27T19:17:12.468Z,5.07
2018-09-27T19:19:41.942Z,5.50
2018-09-27T19:22:10.764Z,5.60
2018-09-27T19:24:39.572Z,6.07
2018-09-27T19:27:08.467Z,5.57
2018-09-27T19:29:37.294Z,5.17
2018-09-27T19:32:06.515Z,6.57
2018-09-27T19:34:35.335Z,5.67
2018-09-27T19:37:04.763Z,5.23
2018-09-27T19:39:33.587Z,6.20
2018-09-27T19:42:02.447Z,6.60
2018-09-27T19:44:31.278Z,5.50
2018-09-27T19:47:00.089Z,5.90
2018-09-27T19:49:29.239Z,6.30
2018-09-27T19:51:58.059Z,5.77
2018-09-27T19:54:26.864Z,5.80
2018-09-27T19:56:56.208Z,6.33
2018-09-27T19:59:28.775Z,6.63
2018-09-27T20:01:58.779Z,6.30
2018-09-27T20:04:28.079Z,5.97
2018-09-27T20:06:57.639Z,5.83
2018-09-27T20:09:26.443Z,5.10
2018-09-27T20:11:55.263Z,6.17
2018-09-27T20:14:24.071Z,6.20
2018-09-27T20:16:52.951Z,5.40
2018-09-27T20:19:21.747Z,5.60
2018-09-27T20:21:50.563Z,6.80
2018-09-27T20:24:20.155Z,5.80
2018-09-27T20:26:48.970Z,5.80
2018-09-27T20:29:17.782Z,7.17
2018-09-27T20:31:46.601Z,7.97
2018-09-27T20:34:15.503Z,8.97
2018-09-27T20:36:44.255Z,7.93
2018-09-27T20:39:13.110Z,7.13
2018-09-27T20:41:41.998Z,7.57
2018-09-27T20:44:10.787Z,7.07
2018-09-27T20:46:39.595Z,7.33
2018-09-27T20:49:08.486Z,6.40
2018-09-27T20:51:37.278Z,6.90
2018-09-27T20:54:06.312Z,6.50
2018-09-27T20:56:35.099Z,6.83
2018-09-27T20:59:04.311Z,6.40
2018-09-27T21:01:33.434Z,6.00
2018-09-27T21:04:02.285Z,5.13
2018-09-27T21:06:31.119Z,6.13
2018-09-27T21:09:00.132Z,5.13
2018-09-27T21:11:29.031Z,4.20
2018-09-27T21:13:57.998Z,5.90
2018-09-27T21:16:26.799Z,5.10
2018-09-27T21:18:55.827Z,5.90
2018-09-27T21:21:24.619Z,5.70
2018-09-27T21:23:54.099Z,4.87
2018-09-27T21:26:23.256Z,5.60
2018-09-27T21:28:52.071Z,6.67
2018-09-27T21:31:20.915Z,8.53
2018-09-27T21:33:49.703Z,10.57
2018-09-27T21:36:18.523Z,13.00
2018-09-27T21:38:47.479Z,13.50
2018-09-27T21:41:16.258Z,12.03
2018-09-27T21:43:45.063Z,12.00
2018-09-27T21:46:13.888Z,10.80
2018-09-27T21:48:42.787Z,8.23
2018-09-27T21:51:11.575Z,7.93
2018-09-27T21:53:40.415Z,6.50
2018-09-27T21:56:09.222Z,5.70
2018-09-27T21:58:38.354Z,6.50
2018-09-27T22:01:07.110Z,5.60
2018-09-27T22:03:35.955Z,5.97
2018-09-27T22:06:04.943Z,5.80
2018-09-27T22:08:33.790Z,6.57
2018-09-27T22:11:02.616Z,5.30
2018-09-27T22:13:31.429Z,5.00
2018-09-27T22:16:00.274Z,4.90
2018-09-27T22:18:29.150Z,4.67
2018-09-27T22:20:57.973Z,4.77
2018-09-27T22:23:26.790Z,4.87
2018-09-27T22:25:55.585Z,5.80
2018-09-27T22:28:24.403Z,4.33
2018-09-27T22:30:53.210Z,4.23
2018-09-27T22:33:22.120Z,4.80
2018-09-27T22:35:50.931Z,4.83
2018-09-27T22:38:19.777Z,5.30
2018-09-27T22:40:48.590Z,4.10
2018-09-27T22:43:17.443Z,4.40
2018-09-27T22:45:46.347Z,3.93
2018-09-27T22:48:16.248Z,4.80
2018-09-27T22:50:45.068Z,4.77
2018-09-27T22:53:13.882Z,5.03
2018-09-27T22:55:42.684Z,4.50
2018-09-27T22:58:11.603Z,3.83
2018-09-27T23:00:40.408Z,4.40
2018-09-27T23:03:09.262Z,5.23
2018-09-27T23:05:38.070Z,4.20
2018-09-27T23:08:07.181Z,5.37
2018-09-27T23:10:36.015Z,4.80
2018-09-27T23:13:04.859Z,5.30
2018-09-27T23:15:33.626Z,3.70
2018-09-27T23:18:02.658Z,4.63
2018-09-27T23:20:31.488Z,4.47
2018-09-27T23:23:00.266Z,4.10
2018-09-27T23:25:29.091Z,3.73
2018-09-27T23:27:57.983Z,5.33
2018-09-27T23:30:26.762Z,4.57
2018-09-27T23:32:55.542Z,4.13
2018-09-27T23:35:24.474Z,4.27
2018-09-27T23:37:53.329Z,4.50
2018-09-27T23:40:22.213Z,4.30
2018-09-27T23:42:51.050Z,4.00
2018-09-27T23:45:19.875Z,4.03
2018-09-27T23:47:48.746Z,3.90
2018-09-27T23:50:17.543Z,4.17
2018-09-27T23:52:46.344Z,4.40
2018-09-27T23:55:15.203Z,4.70
2018-09-27T23:57:44.112Z,5.57
